Time;durP1;ratioP1;P1;durP2;ratioP2;P2;SDS_P1;SDS_P2;PMS_P1;PMS_P2;Temp;Humidity;BMP_temperature;BMP_pressure;BME280_temperature;BME280_humidity;BME280_pressure;Samples;Min_cycle;Max_cycle;Signal;HPM_P1;HPM_P2
2021/12/14 00:02:15;;;;;;;;;;;;;;;;;;5140104;27;20066;-69
2021/12/14 00:04:42;;;;;;;37.58;20.00;;;;;;;;;;5158003;27;19923;-69
2021/12/14 00:07:11;;;;;;;33.30;19.75;;;;;;;;;;5157845;27;20176;-69
2021/12/14 00:09:40;;;;;;;36.78;21.38;;;;;;;;;;5158610;27;20047;-70
2021/12/14 00:17:20;;;;;;;36.70;20.02;;;;;;;;;;5157886;27;20073;-69
2021/12/14 00:19:48;;;;;;;34.22;19.60;;;;;;;;;;5139299;27;20494;-71
2021/12/14 00:22:23;;;;;;;32.05;20.00;;;;;;;;;;5157744;27;20043;-68
2021/12/14 00:24:49;;;;;;;34.33;19.50;;;;;;;;;;5157159;27;20514;-70
2021/12/14 00:27:18;;;;;;;38.05;19.52;;;;;;;;;;5138709;27;20047;-68
2021/12/14 00:29:47;;;;;;;31.55;19.27;;;;;;;;;;5157460;27;20076;-70
2021/12/14 00:32:18;;;;;;;35.38;20.35;;;;;;;;;;5157638;27;20046;-71
2021/12/14 00:34:45;;;;;;;33.25;19.60;;;;;;;;;;5156895;27;20042;-71
2021/12/14 00:37:18;;;;;;;32.40;19.60;;;;;;;;;;5157135;27;20042;-70
2021/12/14 00:39:46;;;;;;;33.80;19.13;;;;;;;;;;5157507;27;20056;-71
2021/12/14 00:42:12;;;;;;;33.38;19.15;;;;;;;;;;5157014;27;20466;-71
2021/12/14 00:44:39;;;;;;;36.30;19.38;;;;;;;;;;5157197;27;20039;-70
2021/12/14 00:47:05;;;;;;;29.33;18.27;;;;;;;;;;5157945;27;20046;-71
2021/12/14 00:49:32;;;;;;;33.63;19.02;;;;;;;;;;5139111;27;20070;-70
2021/12/14 00:51:58;;;;;;;;;;;;;;;;;;5139696;27;20382;-69
2021/12/14 00:54:25;;;;;;;31.85;18.05;;;;;;;;;;5156841;27;19919;-68
2021/12/14 00:56:51;;;;;;;27.80;17.02;;;;;;;;;;5157067;27;20038;-68
2021/12/14 00:59:17;;;;;;;;;;;;;;;;;;5155577;27;20042;-67
2021/12/14 01:01:46;;;;;;;30.88;18.17;;;;;;;;;;5156770;27;19925;-68
2021/12/14 01:04:33;;;;;;;31.38;18.00;;;;;;;;;;5156565;27;20054;-69
2021/12/14 01:06:59;;;;;;;31.05;18.60;;;;;;;;;;5156691;27;20145;-68
2021/12/14 01:09:28;;;;;;;29.88;18.05;;;;;;;;;;5157116;27;20069;-68
2021/12/14 01:11:58;;;;;;;29.17;18.05;;;;;;;;;;5156604;27;20131;-67
2021/12/14 01:14:40;;;;;;;31.98;19.38;;;;;;;;;;5157163;27;20078;-68
2021/12/14 01:17:26;;;;;;;33.17;18.85;;;;;;;;;;5156700;27;20046;-68
2021/12/14 01:19:56;;;;;;;30.77;18.33;;;;;;;;;;5156842;27;20042;-67
2021/12/14 01:22:38;;;;;;;29.90;18.55;;;;;;;;;;5155297;27;20046;-66
2021/12/14 01:25:09;;;;;;;31.35;18.13;;;;;;;;;;5155928;27;20126;-69
2021/12/14 01:27:44;;;;;;;30.00;18.27;;;;;;;;;;5156266;27;20080;-68
2021/12/14 01:30:19;;;;;;;33.85;18.85;;;;;;;;;;5157009;27;20058;-68
2021/12/14 01:32:47;;;;;;;34.33;19.15;;;;;;;;;;5156656;27;20065;-66
2021/12/14 01:35:15;;;;;;;37.30;19.65;;;;;;;;;;5155966;27;20039;-69
2021/12/14 01:37:47;;;;;;;33.42;20.55;;;;;;;;;;5156861;27;20129;-69
2021/12/14 01:40:29;;;;;;;34.00;19.60;;;;;;;;;;5138088;27;20051;-70
2021/12/14 01:42:55;;;;;;;33.13;20.58;;;;;;;;;;5156538;27;20382;-71
2021/12/14 01:45:21;;;;;;;;;;;;;;;;;;5135119;27;20050;-69
2021/12/14 01:47:50;;;;;;;31.15;19.90;;;;;;;;;;5156428;27;19919;-68
2021/12/14 01:50:27;;;;;;;30.23;18.48;;;;;;;;;;5155949;27;20049;-70
2021/12/14 01:52:53;;;;;;;32.17;19.70;;;;;;;;;;5154750;27;20501;-68
2021/12/14 01:55:21;;;;;;;33.15;19.85;;;;;;;;;;5154954;27;20143;-70
2021/12/14 01:57:48;;;;;;;32.78;18.50;;;;;;;;;;5136914;27;20431;-69
2021/12/14 02:00:18;;;;;;;35.60;20.60;;;;;;;;;;5155476;27;20482;-70
2021/12/14 02:02:46;;;;;;;31.67;19.88;;;;;;;;;;5154712;27;20051;-70
2021/12/14 02:05:18;;;;;;;33.78;19.67;;;;;;;;;;5154217;27;20078;-72
2021/12/14 02:07:45;;;;;;;35.85;20.55;;;;;;;;;;5154967;27;20064;-69
2021/12/14 02:10:18;;;;;;;36.08;21.17;;;;;;;;;;5155483;27;20054;-71
2021/12/14 02:12:45;;;;;;;35.00;21.65;;;;;;;;;;5156395;27;20111;-71
2021/12/14 02:15:27;;;;;;;38.45;21.95;;;;;;;;;;5155618;27;20532;-69
2021/12/14 02:17:55;;;;;;;34.60;21.85;;;;;;;;;;5154946;27;20071;-72
2021/12/14 02:20:24;;;;;;;40.80;22.67;;;;;;;;;;5154645;27;20547;-71
2021/12/14 02:22:50;;;;;;;37.72;22.90;;;;;;;;;;5155394;27;20049;-71
2021/12/14 02:25:16;;;;;;;36.13;21.55;;;;;;;;;;5155267;27;20491;-70
2021/12/14 02:27:42;;;;;;;;;;;;;;;;;;5154483;27;20129;-70
2021/12/14 02:30:10;;;;;;;36.13;23.00;;;;;;;;;;5154123;27;19958;-72
2021/12/14 02:32:36;;;;;;;39.13;24.80;;;;;;;;;;5154139;27;20134;-74
2021/12/14 02:35:06;;;;;;;40.75;24.30;;;;;;;;;;5152785;27;20042;-71
2021/12/14 02:37:40;;;;;;;39.55;24.98;;;;;;;;;;5154621;27;20394;-68
2021/12/14 02:40:20;;;;;;;41.05;25.98;;;;;;;;;;5154295;27;20043;-69
2021/12/14 02:42:50;;;;;;;41.70;26.35;;;;;;;;;;5154990;27;20482;-70
2021/12/14 02:45:20;;;;;;;38.67;25.40;;;;;;;;;;5136597;27;20047;-71
2021/12/14 02:47:46;;;;;;;45.35;27.13;;;;;;;;;;5155092;27;20359;-69
2021/12/14 02:50:13;;;;;;;44.60;26.33;;;;;;;;;;5136392;27;20038;-69
2021/12/14 02:52:39;;;;;;;44.20;27.10;;;;;;;;;;5154041;27;20045;-70
2021/12/14 02:55:22;;;;;;;43.05;26.52;;;;;;;;;;5154635;27;20039;-70
2021/12/14 02:57:51;;;;;;;45.35;27.80;;;;;;;;;;5136089;27;20476;-70
2021/12/14 03:00:20;;;;;;;48.10;27.13;;;;;;;;;;5153845;27;20043;-70
2021/12/14 03:02:46;;;;;;;45.65;25.77;;;;;;;;;;5153967;27;20051;-71
2021/12/14 03:05:12;;;;;;;;;;;;;;;;;;5153149;27;20145;-71
2021/12/14 03:07:43;;;;;;;43.00;27.90;;;;;;;;;;5135318;27;20014;-71
2021/12/14 03:10:33;;;;;;;44.28;27.40;;;;;;;;;;5154054;27;20051;-72
2021/12/14 03:13:01;;;;;;;45.58;27.20;;;;;;;;;;5153233;27;20050;-71
2021/12/14 03:15:31;;;;;;;45.83;27.02;;;;;;;;;;5152540;27;20412;-73
2021/12/14 03:17:58;;;;;;;42.95;26.70;;;;;;;;;;5154355;27;20172;-72
2021/12/14 03:20:27;;;;;;;44.88;27.80;;;;;;;;;;5153672;27;20328;-68
2021/12/14 03:22:53;;;;;;;46.22;26.95;;;;;;;;;;5154358;27;20039;-67
2021/12/14 03:25:20;;;;;;;50.38;29.63;;;;;;;;;;5154574;27;20049;-72
2021/12/14 03:27:47;;;;;;;49.35;26.95;;;;;;;;;;5152811;27;20089;-71
2021/12/14 03:30:25;;;;;;;44.72;28.05;;;;;;;;;;5152613;27;20047;-72
2021/12/14 03:32:52;;;;;;;49.40;28.70;;;;;;;;;;5151750;27;20050;-71
2021/12/14 03:35:19;;;;;;;49.03;28.65;;;;;;;;;;5153162;27;20042;-71
2021/12/14 03:37:45;;;;;;;;;;;;;;;;;;5152658;27;20082;-70
2021/12/14 03:40:11;;;;;;;43.42;26.65;;;;;;;;;;5152229;27;20292;-70
2021/12/14 03:42:39;;;;;;;48.45;28.52;;;;;;;;;;5154040;27;20069;-71
2021/12/14 03:45:17;;;;;;;44.80;27.98;;;;;;;;;;5153758;27;20083;-71
2021/12/14 03:47:53;;;;;;;47.72;28.63;;;;;;;;;;5158012;27;20046;-79
2021/12/14 03:50:24;;;;;;;46.75;29.92;;;;;;;;;;5157631;27;20047;-73
2021/12/14 03:52:51;;;;;;;46.13;28.80;;;;;;;;;;5157361;27;20065;-72
2021/12/14 03:55:20;;;;;;;47.60;29.10;;;;;;;;;;5158629;27;20373;-72
2021/12/14 03:57:47;;;;;;;55.13;31.50;;;;;;;;;;5158761;27;20035;-71
2021/12/14 04:00:13;;;;;;;;;;;;;;;;;;5138942;27;20442;-76
2021/12/14 04:02:39;;;;;;;48.72;29.05;;;;;;;;;;5156659;27;19919;-73
2021/12/14 04:05:10;;;;;;;48.35;29.77;;;;;;;;;;5139493;27;20035;-72
2021/12/14 04:07:38;;;;;;;48.80;29.42;;;;;;;;;;5158045;27;20451;-72
2021/12/14 04:10:06;;;;;;;50.67;30.15;;;;;;;;;;5156326;27;20042;-73
2021/12/14 04:12:32;;;;;;;51.50;30.38;;;;;;;;;;5157019;27;20054;-71
2021/12/14 04:14:59;;;;;;;50.40;30.60;;;;;;;;;;5138759;27;20398;-73
2021/12/14 04:17:27;;;;;;;49.78;31.00;;;;;;;;;;5157839;27;20050;-73
2021/12/14 04:19:53;;;;;;;50.70;32.00;;;;;;;;;;5157680;27;20058;-71
2021/12/14 04:22:24;;;;;;;53.50;31.35;;;;;;;;;;5157672;27;20055;-72
2021/12/14 04:24:54;;;;;;;47.75;30.30;;;;;;;;;;5157613;27;20042;-70
2021/12/14 04:27:22;;;;;;;52.45;31.42;;;;;;;;;;5138583;27;20429;-71
2021/12/14 04:29:48;;;;;;;50.83;29.95;;;;;;;;;;5156713;27;20047;-70
2021/12/14 04:32:14;;;;;;;;;;;;;;;;;;5139529;27;20138;-72
2021/12/14 04:34:41;;;;;;;52.85;30.45;;;;;;;;;;5157110;27;20373;-70
2021/12/14 04:37:07;;;;;;;50.75;30.90;;;;;;;;;;5139499;27;20034;-70
2021/12/14 04:39:52;;;;;;;49.58;30.45;;;;;;;;;;5139147;27;20096;-70
2021/12/14 04:53:30;;;;;;;58.58;34.25;;;;;;;;;;5157137;27;20043;-72
2021/12/14 04:55:57;;;;;;;57.30;32.72;;;;;;;;;;5156972;27;20043;-71
2021/12/14 04:58:23;;;;;;;;;;;;;;;;;;5156797;27;20051;-71
2021/12/14 05:00:49;;;;;;;64.05;35.80;;;;;;;;;;5157305;27;20263;-70
2021/12/14 05:03:15;;;;;;;;;;;;;;;;;;5157456;27;20069;-73
2021/12/14 05:05:48;;;;;;;64.28;36.50;;;;;;;;;;5157180;27;20350;-71
2021/12/14 05:11:02;;;;;;;61.17;36.05;;;;;;;;;;5156877;27;20103;-70
2021/12/14 05:13:39;;;;;;;65.20;36.50;;;;;;;;;;5121222;27;20047;-71
2021/12/14 05:16:06;;;;;;;64.97;36.67;;;;;;;;;;5156758;27;20078;-72
2021/12/14 05:18:32;;;;;;;60.33;36.28;;;;;;;;;;5156346;27;20050;-71
2021/12/14 05:20:59;;;;;;;;;;;;;;;;;;5157041;27;20393;-72
2021/12/14 05:23:28;;;;;;;59.45;34.47;;;;;;;;;;5156421;27;19919;-72
2021/12/14 05:25:55;;;;;;;61.80;35.58;;;;;;;;;;5137455;27;20034;-69
2021/12/14 05:28:21;;;;;;;65.50;37.30;;;;;;;;;;5137072;27;20050;-72
2021/12/14 05:30:51;;;;;;;65.93;36.63;;;;;;;;;;5155460;27;20042;-70
2021/12/14 05:33:18;;;;;;;62.85;36.72;;;;;;;;;;5136352;27;20058;-70
2021/12/14 05:35:46;;;;;;;60.80;35.63;;;;;;;;;;5155107;27;20043;-71
2021/12/14 05:38:16;;;;;;;64.07;36.03;;;;;;;;;;5154854;27;20053;-72
2021/12/14 05:40:58;;;;;;;66.35;38.10;;;;;;;;;;5156102;27;20382;-72
2021/12/14 05:43:29;;;;;;;66.32;38.85;;;;;;;;;;5154407;27;20127;-72
2021/12/14 05:45:57;;;;;;;68.72;38.80;;;;;;;;;;5137538;27;20042;-69
2021/12/14 05:48:25;;;;;;;80.05;42.22;;;;;;;;;;5136584;27;20051;-70
2021/12/14 05:50:53;;;;;;;74.38;38.80;;;;;;;;;;5155249;27;20046;-72
2021/12/14 05:53:24;;;;;;;81.25;41.30;;;;;;;;;;5155561;27;20047;-70
2021/12/14 05:55:50;;;;;;;70.70;39.45;;;;;;;;;;5156361;27;20130;-72
2021/12/14 05:58:17;;;;;;;76.60;38.65;;;;;;;;;;5155413;27;20056;-72
2021/12/14 06:00:48;;;;;;;69.57;38.75;;;;;;;;;;5154812;27;20082;-72
2021/12/14 06:03:21;;;;;;;67.80;38.08;;;;;;;;;;5154806;27;20047;-70
2021/12/14 06:05:48;;;;;;;71.13;39.70;;;;;;;;;;5155905;27;20081;-72
2021/12/14 06:08:14;;;;;;;;;;;;;;;;;;5155179;27;20387;-72
2021/12/14 06:10:40;;;;;;;69.53;37.17;;;;;;;;;;5155284;27;19930;-71
2021/12/14 06:13:06;;;;;;;70.57;39.45;;;;;;;;;;5155292;27;20478;-72
2021/12/14 06:15:32;;;;;;;69.00;38.53;;;;;;;;;;5137230;27;20087;-73
2021/12/14 06:17:58;;;;;;;68.32;38.53;;;;;;;;;;5155651;27;20386;-69
2021/12/14 06:20:26;;;;;;;74.13;38.63;;;;;;;;;;5137546;27;20152;-73
2021/12/14 06:22:52;;;;;;;69.03;38.58;;;;;;;;;;5155102;27;20103;-71
2021/12/14 06:25:24;;;;;;;71.55;40.00;;;;;;;;;;5154654;27;20441;-71
2021/12/14 06:27:50;;;;;;;73.07;40.72;;;;;;;;;;5132166;27;20061;-73
2021/12/14 06:30:16;;;;;;;;;;;;;;;;;;5136257;27;20496;-73
2021/12/14 06:32:45;;;;;;;67.30;39.95;;;;;;;;;;5154442;27;19919;-73
2021/12/14 06:35:15;;;;;;;67.60;38.97;;;;;;;;;;5136423;27;20451;-73
2021/12/14 06:40:31;;;;;;;70.55;39.10;;;;;;;;;;5155221;27;20099;-72
2021/12/14 06:42:59;;;;;;;70.20;39.42;;;;;;;;;;5155132;27;20038;-71
2021/12/14 06:45:27;;;;;;;72.57;40.67;;;;;;;;;;5136936;27;20442;-74
2021/12/14 06:48:03;;;;;;;74.57;40.35;;;;;;;;;;5154717;27;20055;-70
2021/12/14 06:50:31;;;;;;;72.60;39.58;;;;;;;;;;5154757;27;20118;-74
2021/12/14 06:52:59;;;;;;;71.50;40.38;;;;;;;;;;5154972;27;20062;-73
2021/12/14 06:55:26;;;;;;;71.47;40.38;;;;;;;;;;5154684;27;20111;-73
2021/12/14 06:57:52;;;;;;;76.85;41.47;;;;;;;;;;5154524;27;20103;-72
2021/12/14 07:00:19;;;;;;;72.60;38.90;;;;;;;;;;5154670;27;20082;-73
2021/12/14 07:02:47;;;;;;;72.75;40.53;;;;;;;;;;5135849;27;20127;-72
2021/12/14 07:05:18;;;;;;;76.72;39.85;;;;;;;;;;5154859;27;20043;-73
2021/12/14 07:07:44;;;;;;;76.18;40.13;;;;;;;;;;5154753;27;20057;-73
2021/12/14 07:10:12;;;;;;;79.43;42.17;;;;;;;;;;5152353;27;20051;-72
2021/12/14 07:12:40;;;;;;;86.13;41.38;;;;;;;;;;5136439;27;20529;-71
2021/12/14 07:15:21;;;;;;;83.80;42.63;;;;;;;;;;5154788;27;20039;-69
2021/12/14 07:17:53;;;;;;;78.05;38.63;;;;;;;;;;5154975;27;20372;-80
2021/12/14 07:20:25;;;;;;;80.22;41.40;;;;;;;;;;5103574;27;20368;-73
2021/12/14 07:23:01;;;;;;;92.38;43.80;;;;;;;;;;5158952;27;20053;-72
2021/12/14 07:25:28;;;;;;;82.28;42.17;;;;;;;;;;5158428;27;20103;-73
2021/12/14 07:28:08;;;;;;;82.80;42.22;;;;;;;;;;5158733;27;20046;-69
2021/12/14 07:30:39;;;;;;;87.90;45.20;;;;;;;;;;5158707;27;20127;-71
2021/12/14 07:33:20;;;;;;;87.28;43.58;;;;;;;;;;5158680;27;20046;-72
2021/12/14 07:35:52;;;;;;;82.97;40.75;;;;;;;;;;5158986;27;20035;-72
2021/12/14 07:38:22;;;;;;;97.30;46.22;;;;;;;;;;5158624;27;20390;-72
2021/12/14 07:41:02;;;;;;;96.18;45.92;;;;;;;;;;5158909;27;20394;-74
2021/12/14 07:43:30;;;;;;;100.68;45.22;;;;;;;;;;5140014;27;20061;-71
2021/12/14 07:45:57;;;;;;;107.15;46.90;;;;;;;;;;5158259;27;20035;-75
2021/12/14 07:48:38;;;;;;;118.90;49.92;;;;;;;;;;5140505;27;20391;-73
2021/12/14 07:51:04;;;;;;;109.38;47.95;;;;;;;;;;5158522;27;20497;-74
2021/12/14 07:53:32;;;;;;;106.35;47.92;;;;;;;;;;5157754;27;20101;-72
2021/12/14 07:55:58;;;;;;;112.60;50.03;;;;;;;;;;5158313;27;20546;-73
2021/12/14 07:58:32;;;;;;;107.18;47.15;;;;;;;;;;5139393;27;20038;-73
2021/12/14 08:00:58;;;;;;;115.60;49.05;;;;;;;;;;5157135;27;20049;-72
2021/12/14 08:03:28;;;;;;;118.55;49.80;;;;;;;;;;5156181;27;20417;-72
2021/12/14 08:05:55;;;;;;;120.72;50.25;;;;;;;;;;5156636;27;20440;-73
2021/12/14 08:08:33;;;;;;;130.07;50.42;;;;;;;;;;5157071;27;20053;-71
2021/12/14 08:13:51;;;;;;;118.15;48.80;;;;;;;;;;5156585;27;20091;-73
2021/12/14 08:16:17;;;;;;;118.20;49.83;;;;;;;;;;5155901;27;20042;-70
2021/12/14 08:18:43;;;;;;;114.70;48.88;;;;;;;;;;5156289;27;20046;-73
2021/12/14 08:21:19;;;;;;;125.22;49.80;;;;;;;;;;5137331;27;20055;-72
2021/12/14 08:23:51;;;;;;;120.78;50.30;;;;;;;;;;5137290;27;20049;-74
2021/12/14 08:26:17;;;;;;;124.18;49.05;;;;;;;;;;5155741;27;20047;-71
2021/12/14 08:28:48;;;;;;;127.40;49.58;;;;;;;;;;5137549;27;20092;-74
2021/12/14 08:31:14;;;;;;;130.05;50.63;;;;;;;;;;5137115;27;20100;-75
2021/12/14 08:33:40;;;;;;;114.00;48.85;;;;;;;;;;5137794;27;20185;-72
2021/12/14 08:36:08;;;;;;;125.25;49.55;;;;;;;;;;5155565;27;20129;-72
2021/12/14 08:38:36;;;;;;;117.72;50.30;;;;;;;;;;5155392;27;20493;-73
2021/12/14 08:41:12;;;;;;;123.72;49.53;;;;;;;;;;5155855;27;20126;-73
2021/12/14 08:43:46;;;;;;;132.88;51.80;;;;;;;;;;5155135;27;20144;-74
2021/12/14 08:46:16;;;;;;;122.72;48.75;;;;;;;;;;5155684;27;20047;-75
2021/12/14 08:48:46;;;;;;;121.35;49.55;;;;;;;;;;5155747;27;20049;-73
2021/12/14 08:51:14;;;;;;;121.22;49.42;;;;;;;;;;5155571;27;20047;-75
2021/12/14 08:53:41;;;;;;;136.45;50.38;;;;;;;;;;5155321;27;20091;-74
2021/12/14 08:56:11;;;;;;;117.72;49.15;;;;;;;;;;5137266;27;20450;-74
2021/12/14 08:58:38;;;;;;;114.55;49.45;;;;;;;;;;5155590;27;20051;-72
2021/12/14 09:01:09;;;;;;;122.43;49.47;;;;;;;;;;5154881;27;20053;-74
2021/12/14 09:03:43;;;;;;;128.27;51.28;;;;;;;;;;5154412;27;20050;-74
2021/12/14 09:06:11;;;;;;;120.05;50.10;;;;;;;;;;5154589;27;20134;-75
2021/12/14 09:08:38;;;;;;;118.22;50.28;;;;;;;;;;5135781;27;20061;-74
2021/12/14 09:11:05;;;;;;;125.82;49.88;;;;;;;;;;5155319;27;20316;-75
2021/12/14 09:13:31;;;;;;;123.70;50.10;;;;;;;;;;5136080;27;20053;-75
2021/12/14 09:16:03;;;;;;;108.00;48.95;;;;;;;;;;5155144;27;20054;-73
2021/12/14 09:18:30;;;;;;;120.00;48.28;;;;;;;;;;5136099;27;20053;-73
2021/12/14 09:20:59;;;;;;;119.03;50.80;;;;;;;;;;5154639;27;20043;-73
2021/12/14 09:23:28;;;;;;;116.05;46.75;;;;;;;;;;5154548;27;20042;-71
2021/12/14 09:25:54;;;;;;;120.07;49.28;;;;;;;;;;5154720;27;20077;-72
2021/12/14 09:28:21;;;;;;;117.55;48.63;;;;;;;;;;5154197;27;20096;-72
2021/12/14 09:30:50;;;;;;;116.80;49.42;;;;;;;;;;5154452;27;20129;-73
2021/12/14 09:33:16;;;;;;;113.38;48.75;;;;;;;;;;5154313;27;20141;-73
2021/12/14 09:35:42;;;;;;;;;;;;;;;;;;5154658;27;20054;-72
2021/12/14 09:38:10;;;;;;;132.43;50.20;;;;;;;;;;5154834;27;19919;-72
2021/12/14 09:40:46;;;;;;;123.45;50.63;;;;;;;;;;5154104;27;20078;-73
2021/12/14 09:43:12;;;;;;;128.25;52.75;;;;;;;;;;5135079;27;20454;-72
2021/12/14 09:45:44;;;;;;;118.43;49.33;;;;;;;;;;5153349;27;20042;-73
2021/12/14 09:48:18;;;;;;;110.97;49.30;;;;;;;;;;5154332;27;20510;-74
2021/12/14 09:50:45;;;;;;;112.88;48.45;;;;;;;;;;5154260;27;20069;-71
2021/12/14 09:53:14;;;;;;;111.20;48.65;;;;;;;;;;5154290;27;20047;-68
2021/12/14 09:55:45;;;;;;;110.95;48.85;;;;;;;;;;5154588;27;20117;-73
2021/12/14 09:58:13;;;;;;;107.70;48.88;;;;;;;;;;5154042;27;20047;-72
2021/12/14 10:00:41;;;;;;;109.22;47.97;;;;;;;;;;5154618;27;20051;-73
2021/12/14 10:03:08;;;;;;;120.57;49.75;;;;;;;;;;5153900;27;20049;-72
2021/12/14 10:05:34;;;;;;;;;;;;;;;;;;5154219;27;20095;-72
2021/12/14 10:08:02;;;;;;;117.93;49.97;;;;;;;;;;5134754;27;19927;-74
2021/12/14 10:10:31;;;;;;;113.45;49.65;;;;;;;;;;5153319;27;20046;-74
2021/12/14 10:12:58;;;;;;;126.72;51.95;;;;;;;;;;5153283;27;20078;-73
2021/12/14 10:15:30;;;;;;;125.75;51.75;;;;;;;;;;5153404;27;20042;-76
2021/12/14 10:17:58;;;;;;;134.25;51.90;;;;;;;;;;5153301;27;20046;-76
2021/12/14 10:20:27;;;;;;;128.52;51.30;;;;;;;;;;5153727;27;20444;-77
2021/12/14 10:22:53;;;;;;;123.80;50.88;;;;;;;;;;5152863;27;20043;-73
2021/12/14 10:25:20;;;;;;;122.13;51.47;;;;;;;;;;5152327;27;20491;-74
2021/12/14 10:27:47;;;;;;;128.25;51.35;;;;;;;;;;5152803;27;20176;-72
2021/12/14 10:30:13;;;;;;;;;;;;;;;;;;5153518;27;20042;-71
2021/12/14 10:32:40;;;;;;;127.15;50.70;;;;;;;;;;5153008;27;19919;-74
2021/12/14 10:35:10;;;;;;;123.35;49.45;;;;;;;;;;5153758;27;20099;-76
2021/12/14 10:38:12;;;;;;;120.07;52.65;;;;;;;;;;5152903;27;20115;-74
2021/12/14 10:43:30;;;;;;;132.57;51.42;;;;;;;;;;5152913;27;20065;-73
2021/12/14 10:46:02;;;;;;;128.23;51.38;;;;;;;;;;5152837;27;20049;-73
2021/12/14 10:48:31;;;;;;;131.73;51.38;;;;;;;;;;5153279;27;20052;-70
2021/12/14 10:50:59;;;;;;;122.57;48.28;;;;;;;;;;5152964;27;20483;-73
2021/12/14 10:53:25;;;;;;;126.57;51.28;;;;;;;;;;5152638;27;20463;-74
2021/12/14 10:55:53;;;;;;;124.65;48.55;;;;;;;;;;5153897;27;20039;-72
2021/12/14 10:58:21;;;;;;;115.63;46.78;;;;;;;;;;5157338;27;20498;-73
2021/12/14 11:00:51;;;;;;;121.88;48.50;;;;;;;;;;5157618;27;20051;-72
2021/12/14 11:03:21;;;;;;;122.05;47.08;;;;;;;;;;5156974;27;20114;-72
2021/12/14 11:05:51;;;;;;;112.60;45.75;;;;;;;;;;5157061;27;20177;-72
2021/12/14 11:08:36;;;;;;;114.07;46.70;;;;;;;;;;5157374;27;20050;-69
2021/12/14 11:11:04;;;;;;;117.78;46.95;;;;;;;;;;5140851;27;20125;-75
2021/12/14 11:13:37;;;;;;;126.82;47.97;;;;;;;;;;5156368;27;20094;-76
2021/12/14 11:16:05;;;;;;;120.72;46.50;;;;;;;;;;5157425;27;20090;-78
2021/12/14 11:18:32;;;;;;;114.93;44.55;;;;;;;;;;5156340;27;20073;-74
2021/12/14 11:21:00;;;;;;;115.88;44.75;;;;;;;;;;5156750;27;20462;-73
2021/12/14 11:23:28;;;;;;;112.47;45.17;;;;;;;;;;5155976;27;20089;-74
2021/12/14 11:25:57;;;;;;;106.47;45.83;;;;;;;;;;5157248;27;20046;-72
2021/12/14 11:28:29;;;;;;;104.35;43.72;;;;;;;;;;5138668;27;20054;-73
2021/12/14 11:31:17;;;;;;;112.25;45.30;;;;;;;;;;5139308;27;20431;-73
2021/12/14 11:33:46;;;;;;;110.60;44.05;;;;;;;;;;5139029;27;20467;-70
2021/12/14 11:36:15;;;;;;;111.03;43.72;;;;;;;;;;5156698;27;20124;-72
2021/12/14 11:38:52;;;;;;;95.47;40.00;;;;;;;;;;5155732;27;20450;-70
2021/12/14 11:41:24;;;;;;;106.93;42.53;;;;;;;;;;5138295;27;20165;-73
2021/12/14 11:43:52;;;;;;;115.38;41.75;;;;;;;;;;5138922;27;20043;-72
2021/12/14 11:46:19;;;;;;;113.00;41.22;;;;;;;;;;5156895;27;20378;-74
2021/12/14 11:48:45;;;;;;;108.03;41.53;;;;;;;;;;5155547;27;20051;-73
2021/12/14 11:51:13;;;;;;;95.65;34.75;;;;;;;;;;5156102;27;20086;-69
2021/12/14 11:53:47;;;;;;;108.22;41.80;;;;;;;;;;5156339;27;20042;-73
2021/12/14 11:56:15;;;;;;;91.95;34.45;;;;;;;;;;5137371;27;20134;-73
2021/12/14 11:58:43;;;;;;;104.70;40.15;;;;;;;;;;5155586;27;20502;-75
2021/12/14 12:01:12;;;;;;;103.00;38.47;;;;;;;;;;5137832;27;20523;-70
2021/12/14 12:03:38;;;;;;;102.50;40.13;;;;;;;;;;5155881;27;20324;-78
2021/12/14 12:06:35;;;;;;;104.70;40.00;;;;;;;;;;5155931;27;20101;-73
2021/12/14 12:09:28;;;;;;;96.20;36.10;;;;;;;;;;5144543;27;20062;-74
2021/12/14 12:11:56;;;;;;;100.93;37.47;;;;;;;;;;5155020;27;20058;-73
2021/12/14 12:14:24;;;;;;;86.95;34.40;;;;;;;;;;5155227;27;20122;-71
2021/12/14 12:16:54;;;;;;;123.38;41.85;;;;;;;;;;5155198;27;20129;-72
2021/12/14 12:19:23;;;;;;;127.75;41.90;;;;;;;;;;5155801;27;20505;-70
2021/12/14 12:21:49;;;;;;;121.95;40.47;;;;;;;;;;5155358;27;20042;-73
2021/12/14 12:24:31;;;;;;;116.22;39.50;;;;;;;;;;5137335;27;20039;-72
2021/12/14 12:27:16;;;;;;;108.30;36.92;;;;;;;;;;5136905;27;20129;-69
2021/12/14 12:29:42;;;;;;;91.50;33.78;;;;;;;;;;5155768;27;20406;-73
2021/12/14 12:32:18;;;;;;;97.28;33.33;;;;;;;;;;5155271;27;20047;-72
2021/12/14 12:34:45;;;;;;;105.10;37.05;;;;;;;;;;5154843;27;20042;-71
2021/12/14 12:37:12;;;;;;;100.10;35.75;;;;;;;;;;5155422;27;20053;-72
2021/12/14 12:39:37;;;;;;;;;;;;;;;;;;5155758;27;20043;-71
2021/12/14 12:42:05;;;;;;;93.28;33.15;;;;;;;;;;5155541;27;19971;-72
2021/12/14 12:44:33;;;;;;;101.03;34.30;;;;;;;;;;5155417;27;20050;-74
2021/12/14 12:47:06;;;;;;;81.10;30.45;;;;;;;;;;5154165;27;20061;-72
2021/12/14 12:49:53;;;;;;;99.38;33.53;;;;;;;;;;5154944;27;20110;-73
2021/12/14 12:52:27;;;;;;;94.82;33.53;;;;;;;;;;5155188;27;20453;-77
2021/12/14 12:54:58;;;;;;;88.70;31.05;;;;;;;;;;5155478;27;20088;-71
2021/12/14 12:57:34;;;;;;;91.15;33.60;;;;;;;;;;5154634;27;20390;-73
2021/12/14 13:00:19;;;;;;;82.50;30.58;;;;;;;;;;5155422;27;20047;-74
2021/12/14 13:02:45;;;;;;;86.78;31.02;;;;;;;;;;5154854;27;20046;-72
2021/12/14 13:05:11;;;;;;;;;;;;;;;;;;5155424;27;20246;-72
2021/12/14 13:07:37;;;;;;;82.85;30.05;;;;;;;;;;5154530;27;20021;-73
2021/12/14 13:10:10;;;;;;;87.70;32.00;;;;;;;;;;5136319;27;20054;-72
2021/12/14 13:12:37;;;;;;;89.43;29.90;;;;;;;;;;5154990;27;20078;-71
2021/12/14 13:15:03;;;;;;;86.95;31.73;;;;;;;;;;5154746;27;20035;-71
2021/12/14 13:17:29;;;;;;;;;;;;;;;;;;5155544;27;20043;-72
2021/12/14 13:19:59;;;;;;;75.13;28.48;;;;;;;;;;5154121;27;19919;-72
2021/12/14 13:22:26;;;;;;;70.78;27.05;;;;;;;;;;5155299;27;20042;-72
2021/12/14 13:24:51;;;;;;;;;;;;;;;;;;5155239;27;20051;-72
2021/12/14 13:27:22;;;;;;;70.25;25.75;;;;;;;;;;5154638;27;20260;-71
2021/12/14 13:29:51;;;;;;;69.95;25.95;;;;;;;;;;5154754;27;20091;-72
2021/12/14 13:32:25;;;;;;;70.40;25.52;;;;;;;;;;5118911;27;20086;-70
2021/12/14 13:34:53;;;;;;;72.30;26.33;;;;;;;;;;5154472;27;20103;-71
2021/12/14 13:37:25;;;;;;;65.38;24.15;;;;;;;;;;5154464;27;20145;-72
2021/12/14 13:39:52;;;;;;;70.15;25.27;;;;;;;;;;5136803;27;20347;-72
2021/12/14 13:42:44;;;;;;;64.30;24.42;;;;;;;;;;5154091;27;20074;-72
2021/12/14 13:45:12;;;;;;;62.50;24.90;;;;;;;;;;5114796;27;20059;-73
2021/12/14 13:47:39;;;;;;;67.38;27.48;;;;;;;;;;5154946;27;20431;-72
2021/12/14 13:50:08;;;;;;;78.55;27.63;;;;;;;;;;5154531;27;20043;-72
2021/12/14 13:52:34;;;;;;;60.47;23.42;;;;;;;;;;5154346;27;20052;-72
2021/12/14 13:55:03;;;;;;;67.13;25.20;;;;;;;;;;5154701;27;20095;-71
2021/12/14 13:57:29;;;;;;;63.33;25.33;;;;;;;;;;5154093;27;20046;-73
2021/12/14 13:59:55;;;;;;;70.18;26.10;;;;;;;;;;5154274;27;20104;-74
2021/12/14 14:02:25;;;;;;;67.28;25.63;;;;;;;;;;5154077;27;20091;-75
2021/12/14 14:04:51;;;;;;;74.85;26.15;;;;;;;;;;5153929;27;20038;-72
2021/12/14 14:07:18;;;;;;;65.38;24.45;;;;;;;;;;5154333;27;20047;-74
2021/12/14 14:09:44;;;;;;;66.53;23.63;;;;;;;;;;5154153;27;20464;-73
2021/12/14 14:12:14;;;;;;;67.55;25.90;;;;;;;;;;5153757;27;20133;-71
2021/12/14 14:14:41;;;;;;;74.43;25.90;;;;;;;;;;5153802;27;20107;-74
2021/12/14 14:17:08;;;;;;;73.57;26.38;;;;;;;;;;5154010;27;20091;-74
2021/12/14 14:19:39;;;;;;;71.50;25.92;;;;;;;;;;5154094;27;20061;-69
2021/12/14 14:22:07;;;;;;;86.43;27.48;;;;;;;;;;5153817;27;20079;-75
2021/12/14 14:24:35;;;;;;;76.53;28.10;;;;;;;;;;5153815;27;20130;-73
2021/12/14 14:27:02;;;;;;;94.22;29.95;;;;;;;;;;5153990;27;20062;-74
2021/12/14 14:29:41;;;;;;;87.82;29.48;;;;;;;;;;5153461;27;20542;-78
2021/12/14 14:32:22;;;;;;;86.47;29.38;;;;;;;;;;5153545;27;20043;-78
2021/12/14 14:34:54;;;;;;;84.30;30.45;;;;;;;;;;5137646;27;20043;-84
2021/12/14 14:37:26;;;;;;;94.43;30.77;;;;;;;;;;5154070;27;20058;-73
2021/12/14 14:39:54;;;;;;;87.05;30.45;;;;;;;;;;5153637;27;20042;-79
2021/12/14 14:42:20;;;;;;;101.68;31.95;;;;;;;;;;5153485;27;20047;-77
2021/12/14 14:44:46;;;;;;;82.78;29.63;;;;;;;;;;5154060;27;20046;-75
2021/12/14 14:47:12;;;;;;;82.25;29.38;;;;;;;;;;5153518;27;20410;-74
2021/12/14 14:49:39;;;;;;;77.07;27.38;;;;;;;;;;5153856;27;20043;-75
2021/12/14 14:52:06;;;;;;;109.07;32.63;;;;;;;;;;5154161;27;20551;-72
2021/12/14 14:54:32;;;;;;;90.43;32.83;;;;;;;;;;5136803;27;20043;-74
2021/12/14 14:57:01;;;;;;;104.25;33.00;;;;;;;;;;5154626;27;20478;-75
2021/12/14 14:59:27;;;;;;;104.13;32.55;;;;;;;;;;5154776;27;20038;-75
2021/12/14 15:01:54;;;;;;;;;;;;;;;;;;5136893;27;20043;-77
2021/12/14 15:04:21;;;;;;;83.38;31.20;;;;;;;;;;5154660;27;19919;-82